sensor_id;sensor_type;location;lat;lon;timestamp;pressure;altitude;pressure_sealevel;temperature;humidity
3844;BME280;1937;51.444;6.484;2022-09-09T00:00:28;75448.19;;;15.69;100.00
3844;BME280;1937;51.444;6.484;2022-09-09T00:03:05;75612.69;;;15.74;100.00
3844;BME280;1937;51.444;6.484;2022-09-09T00:05:41;75467.69;;;15.68;100.00
3844;BME280;1937;51.444;6.484;2022-09-09T00:08:18;75355.53;;;15.31;100.00
3844;BME280;1937;51.444;6.484;2022-09-09T00:10:50;75384.19;;;15.23;100.00
3844;BME280;1937;51.444;6.484;2022-09-09T00:13:27;75679.78;;;15.41;100.00
3844;BME280;1937;51.444;6.484;2022-09-09T00:16:03;75881.31;;;15.58;100.00
3844;BME280;1937;51.444;6.484;2022-09-09T00:18:45;75999.69;;;15.81;100.00
3844;BME280;1937;51.444;6.484;2022-09-09T00:21:19;75854.66;;;15.72;100.00
3844;BME280;1937;51.444;6.484;2022-09-09T00:23:54;75993.16;;;15.90;100.00
3844;BME280;1937;51.444;6.484;2022-09-09T00:26:26;75899.53;;;15.72;100.00
3844;BME280;1937;51.444;6.484;2022-09-09T00:29:09;75924.88;;;15.57;100.00
3844;BME280;1937;51.444;6.484;2022-09-09T00:31:43;76125.16;;;15.55;100.00
3844;BME280;1937;51.444;6.484;2022-09-09T00:34:14;76004.16;;;15.32;100.00
3844;BME280;1937;51.444;6.484;2022-09-09T00:36:45;76237.53;;;15.38;100.00
3844;BME280;1937;51.444;6.484;2022-09-09T00:39:19;76602.56;;;15.61;100.00
3844;BME280;1937;51.444;6.484;2022-09-09T00:41:56;76248.56;;;15.32;100.00
3844;BME280;1937;51.444;6.484;2022-09-09T00:44:33;76297.97;;;15.30;100.00
3844;BME280;1937;51.444;6.484;2022-09-09T00:47:12;76215.97;;;15.11;100.00
3844;BME280;1937;51.444;6.484;2022-09-09T00:49:52;76229.56;;;15.01;100.00
3844;BME280;1937;51.444;6.484;2022-09-09T00:52:30;76326.28;;;14.90;100.00
3844;BME280;1937;51.444;6.484;2022-09-09T00:55:05;76510.13;;;14.91;100.00
3844;BME280;1937;51.444;6.484;2022-09-09T00:57:35;76669.97;;;14.92;100.00
3844;BME280;1937;51.444;6.484;2022-09-09T01:00:19;76775.31;;;14.97;100.00
3844;BME280;1937;51.444;6.484;2022-09-09T01:02:56;76788.25;;;14.93;100.00
3844;BME280;1937;51.444;6.484;2022-09-09T01:05:30;76845.38;;;14.89;100.00
3844;BME280;1937;51.444;6.484;2022-09-09T01:08:02;76983.78;;;14.92;100.00
3844;BME280;1937;51.444;6.484;2022-09-09T01:10:41;76949.28;;;14.87;100.00
3844;BME280;1937;51.444;6.484;2022-09-09T01:13:19;77097.53;;;14.93;100.00
3844;BME280;1937;51.444;6.484;2022-09-09T01:15:52;77217.91;;;15.00;100.00
3844;BME280;1937;51.444;6.484;2022-09-09T01:18:23;77256.16;;;14.95;100.00
3844;BME280;1937;51.444;6.484;2022-09-09T01:20:59;77541.94;;;15.13;100.00
3844;BME280;1937;51.444;6.484;2022-09-09T01:23:48;77426.84;;;15.12;100.00
3844;BME280;1937;51.444;6.484;2022-09-09T01:26:32;77416.34;;;15.08;100.00
3844;BME280;1937;51.444;6.484;2022-09-09T01:29:04;77475.84;;;15.22;100.00
3844;BME280;1937;51.444;6.484;2022-09-09T01:31:39;77346.25;;;15.12;100.00
3844;BME280;1937;51.444;6.484;2022-09-09T01:34:13;77499.84;;;15.21;100.00
3844;BME280;1937;51.444;6.484;2022-09-09T01:36:45;77578.22;;;15.33;100.00
3844;BME280;1937;51.444;6.484;2022-09-09T01:39:17;77431.72;;;15.26;100.00
3844;BME280;1937;51.444;6.484;2022-09-09T01:41:46;77335.47;;;15.24;100.00
3844;BME280;1937;51.444;6.484;2022-09-09T01:44:16;77377.88;;;15.31;100.00
3844;BME280;1937;51.444;6.484;2022-09-09T01:46:46;77388.28;;;15.31;100.00
3844;BME280;1937;51.444;6.484;2022-09-09T01:49:14;77403.94;;;15.33;100.00
3844;BME280;1937;51.444;6.484;2022-09-09T01:51:45;77561.50;;;15.40;100.00
3844;BME280;1937;51.444;6.484;2022-09-09T01:54:16;77335.53;;;15.28;100.00
3844;BME280;1937;51.444;6.484;2022-09-09T01:56:55;77411.06;;;15.32;100.00
3844;BME280;1937;51.444;6.484;2022-09-09T01:59:42;77370.91;;;15.11;100.00
3844;BME280;1937;51.444;6.484;2022-09-09T02:02:17;77446.69;;;15.00;100.00
3844;BME280;1937;51.444;6.484;2022-09-09T02:04:47;77935.94;;;15.34;100.00
3844;BME280;1937;51.444;6.484;2022-09-09T02:07:35;77718.75;;;15.35;100.00
3844;BME280;1937;51.444;6.484;2022-09-09T02:10:09;77725.09;;;15.30;100.00
3844;BME280;1937;51.444;6.484;2022-09-09T02:12:42;77677.72;;;15.33;100.00
3844;BME280;1937;51.444;6.484;2022-09-09T02:15:16;77694.84;;;15.40;100.00
3844;BME280;1937;51.444;6.484;2022-09-09T02:17:48;77414.81;;;15.25;100.00
3844;BME280;1937;51.444;6.484;2022-09-09T02:20:20;77586.25;;;15.41;100.00
3844;BME280;1937;51.444;6.484;2022-09-09T02:22:50;77412.81;;;15.24;100.00
3844;BME280;1937;51.444;6.484;2022-09-09T02:25:21;77514.84;;;15.22;100.00
3844;BME280;1937;51.444;6.484;2022-09-09T02:27:51;77476.56;;;15.25;100.00
3844;BME280;1937;51.444;6.484;2022-09-09T02:30:21;77642.03;;;15.36;100.00
3844;BME280;1937;51.444;6.484;2022-09-09T02:32:52;77302.19;;;15.19;100.00
3844;BME280;1937;51.444;6.484;2022-09-09T02:35:26;77459.47;;;15.18;100.00
3844;BME280;1937;51.444;6.484;2022-09-09T02:37:58;77543.81;;;15.10;100.00
3844;BME280;1937;51.444;6.484;2022-09-09T02:40:28;77677.19;;;15.15;100.00
3844;BME280;1937;51.444;6.484;2022-09-09T02:42:59;77771.31;;;15.31;100.00
3844;BME280;1937;51.444;6.484;2022-09-09T02:45:31;77612.59;;;15.29;100.00
3844;BME280;1937;51.444;6.484;2022-09-09T02:48:07;77360.81;;;15.24;100.00
3844;BME280;1937;51.444;6.484;2022-09-09T02:50:42;77381.91;;;15.36;100.00
3844;BME280;1937;51.444;6.484;2022-09-09T02:53:18;77119.72;;;15.30;100.00
3844;BME280;1937;51.444;6.484;2022-09-09T02:55:50;76819.84;;;15.20;100.00
3844;BME280;1937;51.444;6.484;2022-09-09T02:58:23;76814.00;;;15.21;100.00
3844;BME280;1937;51.444;6.484;2022-09-09T03:00:52;76802.94;;;15.19;100.00
3844;BME280;1937;51.444;6.484;2022-09-09T03:03:21;76841.97;;;15.23;100.00
3844;BME280;1937;51.444;6.484;2022-09-09T03:05:50;76734.75;;;15.24;100.00
3844;BME280;1937;51.444;6.484;2022-09-09T03:08:19;76795.34;;;15.35;100.00
3844;BME280;1937;51.444;6.484;2022-09-09T03:10:47;76567.06;;;15.27;100.00
3844;BME280;1937;51.444;6.484;2022-09-09T03:13:16;76553.47;;;15.33;100.00
3844;BME280;1937;51.444;6.484;2022-09-09T03:15:47;76455.94;;;15.32;100.00
3844;BME280;1937;51.444;6.484;2022-09-09T03:18:17;76616.69;;;15.47;100.00
3844;BME280;1937;51.444;6.484;2022-09-09T03:20:45;76436.56;;;15.43;100.00
3844;BME280;1937;51.444;6.484;2022-09-09T03:23:16;76300.03;;;15.48;100.00
3844;BME280;1937;51.444;6.484;2022-09-09T03:25:48;76374.25;;;15.57;100.00
3844;BME280;1937;51.444;6.484;2022-09-09T03:28:17;76294.88;;;15.56;100.00
3844;BME280;1937;51.444;6.484;2022-09-09T03:30:45;76328.13;;;15.70;100.00
3844;BME280;1937;51.444;6.484;2022-09-09T03:33:14;76090.06;;;15.61;100.00
3844;BME280;1937;51.444;6.484;2022-09-09T03:35:45;75967.16;;;15.62;100.00
3844;BME280;1937;51.444;6.484;2022-09-09T03:38:15;75991.84;;;15.67;100.00
3844;BME280;1937;51.444;6.484;2022-09-09T03:40:50;75800.69;;;15.58;100.00
3844;BME280;1937;51.444;6.484;2022-09-09T03:43:22;75934.00;;;15.71;100.00
3844;BME280;1937;51.444;6.484;2022-09-09T03:45:52;76002.94;;;15.76;100.00
3844;BME280;1937;51.444;6.484;2022-09-09T03:48:24;75779.84;;;15.72;100.00
3844;BME280;1937;51.444;6.484;2022-09-09T03:50:55;75646.56;;;15.66;100.00
3844;BME280;1937;51.444;6.484;2022-09-09T03:53:25;75775.28;;;15.69;100.00
3844;BME280;1937;51.444;6.484;2022-09-09T03:55:56;76060.84;;;15.88;100.00
3844;BME280;1937;51.444;6.484;2022-09-09T03:58:27;75982.75;;;16.05;100.00
3844;BME280;1937;51.444;6.484;2022-09-09T04:01:00;75812.91;;;16.06;100.00
3844;BME280;1937;51.444;6.484;2022-09-09T04:03:29;75720.47;;;16.11;100.00
3844;BME280;1937;51.444;6.484;2022-09-09T04:06:00;75704.84;;;16.11;100.00
3844;BME280;1937;51.444;6.484;2022-09-09T04:08:31;75693.75;;;16.19;100.00
3844;BME280;1937;51.444;6.484;2022-09-09T04:11:00;75641.59;;;16.27;100.00
3844;BME280;1937;51.444;6.484;2022-09-09T04:13:32;75309.75;;;16.20;100.00
3844;BME280;1937;51.444;6.484;2022-09-09T04:16:04;75317.50;;;16.24;100.00
3844;BME280;1937;51.444;6.484;2022-09-09T04:18:34;75242.66;;;16.24;100.00
3844;BME280;1937;51.444;6.484;2022-09-09T04:21:03;74992.19;;;16.20;100.00
3844;BME280;1937;51.444;6.484;2022-09-09T04:23:33;75048.00;;;16.27;100.00
3844;BME280;1937;51.444;6.484;2022-09-09T04:26:03;75105.28;;;16.27;100.00
3844;BME280;1937;51.444;6.484;2022-09-09T04:28:34;75102.69;;;16.27;100.00
3844;BME280;1937;51.444;6.484;2022-09-09T04:31:10;75065.47;;;16.32;100.00
3844;BME280;1937;51.444;6.484;2022-09-09T04:33:39;75166.91;;;16.41;100.00
3844;BME280;1937;51.444;6.484;2022-09-09T04:36:09;74964.66;;;16.29;100.00
3844;BME280;1937;51.444;6.484;2022-09-09T04:38:38;75009.94;;;16.46;100.00
3844;BME280;1937;51.444;6.484;2022-09-09T04:41:07;74894.16;;;16.41;100.00
3844;BME280;1937;51.444;6.484;2022-09-09T04:43:38;74806.91;;;16.42;100.00
3844;BME280;1937;51.444;6.484;2022-09-09T04:46:08;74700.94;;;16.36;100.00
3844;BME280;1937;51.444;6.484;2022-09-09T04:48:37;74779.72;;;16.35;100.00
3844;BME280;1937;51.444;6.484;2022-09-09T04:51:08;74888.22;;;16.45;100.00
3844;BME280;1937;51.444;6.484;2022-09-09T04:53:39;74766.69;;;16.35;100.00
3844;BME280;1937;51.444;6.484;2022-09-09T04:56:08;74767.44;;;16.31;100.00
3844;BME280;1937;51.444;6.484;2022-09-09T04:58:38;74670.16;;;16.16;100.00
3844;BME280;1937;51.444;6.484;2022-09-09T05:01:11;74886.47;;;16.35;100.00
3844;BME280;1937;51.444;6.484;2022-09-09T05:03:40;74764.88;;;16.29;100.00
3844;BME280;1937;51.444;6.484;2022-09-09T05:06:11;74764.19;;;16.31;100.00
3844;BME280;1937;51.444;6.484;2022-09-09T05:08:41;74820.13;;;16.32;100.00
3844;BME280;1937;51.444;6.484;2022-09-09T05:11:16;74804.03;;;16.23;100.00
3844;BME280;1937;51.444;6.484;2022-09-09T05:13:46;74868.44;;;16.25;100.00
3844;BME280;1937;51.444;6.484;2022-09-09T05:16:19;74885.81;;;16.34;100.00
3844;BME280;1937;51.444;6.484;2022-09-09T05:18:50;74826.50;;;16.39;100.00
3844;BME280;1937;51.444;6.484;2022-09-09T05:21:20;74680.31;;;16.26;100.00
3844;BME280;1937;51.444;6.484;2022-09-09T05:23:50;74656.34;;;16.22;100.00
3844;BME280;1937;51.444;6.484;2022-09-09T05:26:21;74700.78;;;16.14;100.00
3844;BME280;1937;51.444;6.484;2022-09-09T05:28:49;74805.28;;;16.26;100.00
3844;BME280;1937;51.444;6.484;2022-09-09T05:31:20;74783.84;;;16.24;100.00
3844;BME280;1937;51.444;6.484;2022-09-09T05:33:50;74759.66;;;16.29;100.00
3844;BME280;1937;51.444;6.484;2022-09-09T05:36:20;74643.63;;;16.10;100.00
3844;BME280;1937;51.444;6.484;2022-09-09T05:38:51;74759.25;;;16.19;100.00
3844;BME280;1937;51.444;6.484;2022-09-09T05:41:21;74802.16;;;16.20;100.00
3844;BME280;1937;51.444;6.484;2022-09-09T05:43:50;74807.97;;;16.22;100.00
3844;BME280;1937;51.444;6.484;2022-09-09T05:46:22;74810.78;;;16.12;100.00
3844;BME280;1937;51.444;6.484;2022-09-09T05:48:51;74797.72;;;16.14;100.00
3844;BME280;1937;51.444;6.484;2022-09-09T05:51:21;74854.72;;;16.26;100.00
3844;BME280;1937;51.444;6.484;2022-09-09T05:53:51;74743.66;;;16.17;100.00
3844;BME280;1937;51.444;6.484;2022-09-09T05:56:20;74852.84;;;16.23;100.00
3844;BME280;1937;51.444;6.484;2022-09-09T05:58:51;74838.63;;;16.18;100.00
3844;BME280;1937;51.444;6.484;2022-09-09T06:01:24;74967.94;;;16.27;100.00
3844;BME280;1937;51.444;6.484;2022-09-09T06:03:53;74922.25;;;16.34;100.00
3844;BME280;1937;51.444;6.484;2022-09-09T06:06:23;74924.00;;;16.46;100.00
3844;BME280;1937;51.444;6.484;2022-09-09T06:08:55;74655.16;;;16.46;100.00
3844;BME280;1937;51.444;6.484;2022-09-09T06:11:25;74697.75;;;16.63;100.00
3844;BME280;1937;51.444;6.484;2022-09-09T06:13:56;74841.78;;;16.86;100.00
3844;BME280;1937;51.444;6.484;2022-09-09T06:18:55;74603.06;;;17.24;100.00
3844;BME280;1937;51.444;6.484;2022-09-09T06:21:25;74285.41;;;17.12;100.00
3844;BME280;1937;51.444;6.484;2022-09-09T06:23:54;74109.31;;;17.17;100.00
3844;BME280;1937;51.444;6.484;2022-09-09T06:26:23;73918.34;;;17.18;100.00
3844;BME280;1937;51.444;6.484;2022-09-09T06:28:54;73763.38;;;17.15;100.00
3844;BME280;1937;51.444;6.484;2022-09-09T06:31:25;73582.66;;;17.06;100.00
3844;BME280;1937;51.444;6.484;2022-09-09T06:33:59;73679.47;;;17.13;100.00
3844;BME280;1937;51.444;6.484;2022-09-09T06:36:30;73781.59;;;17.32;100.00
3844;BME280;1937;51.444;6.484;2022-09-09T06:38:59;73695.44;;;17.36;100.00
3844;BME280;1937;51.444;6.484;2022-09-09T06:41:29;73670.38;;;17.58;100.00
3844;BME280;1937;51.444;6.484;2022-09-09T06:43:58;73406.13;;;17.64;100.00
3844;BME280;1937;51.444;6.484;2022-09-09T06:46:28;73323.78;;;17.81;100.00
3844;BME280;1937;51.444;6.484;2022-09-09T06:49:00;73133.03;;;17.87;100.00
3844;BME280;1937;51.444;6.484;2022-09-09T06:51:31;72900.28;;;17.87;99.70
3844;BME280;1937;51.444;6.484;2022-09-09T06:54:01;72759.94;;;17.89;100.00
3844;BME280;1937;51.444;6.484;2022-09-09T06:56:31;72625.66;;;17.78;100.00
3844;BME280;1937;51.444;6.484;2022-09-09T06:59:03;72648.38;;;17.79;99.96
3844;BME280;1937;51.444;6.484;2022-09-09T07:01:34;72484.94;;;17.97;97.99
3844;BME280;1937;51.444;6.484;2022-09-09T07:04:05;72414.19;;;17.71;100.00
3844;BME280;1937;51.444;6.484;2022-09-09T07:06:37;72377.53;;;17.84;99.20
3844;BME280;1937;51.444;6.484;2022-09-09T07:09:08;72242.28;;;17.88;98.22
3844;BME280;1937;51.444;6.484;2022-09-09T07:11:39;72103.97;;;17.99;97.21
3844;BME280;1937;51.444;6.484;2022-09-09T07:14:10;71986.38;;;18.12;97.00
3844;BME280;1937;51.444;6.484;2022-09-09T07:16:40;71999.44;;;18.20;96.17
3844;BME280;1937;51.444;6.484;2022-09-09T07:19:11;71891.03;;;18.49;94.07
3844;BME280;1937;51.444;6.484;2022-09-09T07:21:41;71836.06;;;18.68;94.85
3844;BME280;1937;51.444;6.484;2022-09-09T07:24:10;71805.34;;;18.86;94.38
3844;BME280;1937;51.444;6.484;2022-09-09T07:26:40;71551.22;;;18.96;91.88
3844;BME280;1937;51.444;6.484;2022-09-09T07:29:09;71381.13;;;19.00;91.15
3844;BME280;1937;51.444;6.484;2022-09-09T07:31:41;71131.00;;;18.86;91.55
3844;BME280;1937;51.444;6.484;2022-09-09T07:34:10;71017.88;;;18.80;90.36
3844;BME280;1937;51.444;6.484;2022-09-09T07:36:40;70929.94;;;18.86;89.38
3844;BME280;1937;51.444;6.484;2022-09-09T07:39:11;70889.16;;;18.82;90.24
3844;BME280;1937;51.444;6.484;2022-09-09T07:41:42;70864.97;;;18.97;89.64
3844;BME280;1937;51.444;6.484;2022-09-09T07:44:12;70858.56;;;19.31;88.46
3844;BME280;1937;51.444;6.484;2022-09-09T07:46:41;70698.03;;;19.43;87.02
3844;BME280;1937;51.444;6.484;2022-09-09T07:49:13;70666.94;;;19.54;86.57
3844;BME280;1937;51.444;6.484;2022-09-09T07:51:44;70619.91;;;19.67;85.83
3844;BME280;1937;51.444;6.484;2022-09-09T07:54:16;70544.50;;;19.83;84.22
3844;BME280;1937;51.444;6.484;2022-09-09T07:56:47;70399.13;;;19.73;84.53
3844;BME280;1937;51.444;6.484;2022-09-09T07:59:16;70388.44;;;19.75;84.66
3844;BME280;1937;51.444;6.484;2022-09-09T08:01:47;70417.50;;;20.10;83.78
3844;BME280;1937;51.444;6.484;2022-09-09T08:04:19;70379.78;;;20.40;80.93
3844;BME280;1937;51.444;6.484;2022-09-09T08:06:50;70362.31;;;20.69;79.88
3844;BME280;1937;51.444;6.484;2022-09-09T08:09:20;70298.38;;;20.86;78.89
3844;BME280;1937;51.444;6.484;2022-09-09T08:11:52;70338.94;;;21.05;79.56
3844;BME280;1937;51.444;6.484;2022-09-09T08:14:22;70254.44;;;21.17;77.64
3844;BME280;1937;51.444;6.484;2022-09-09T08:16:52;70368.75;;;21.63;76.75
3844;BME280;1937;51.444;6.484;2022-09-09T08:19:22;70479.81;;;22.34;75.91
3844;BME280;1937;51.444;6.484;2022-09-09T08:21:51;70387.34;;;22.34;74.23
3844;BME280;1937;51.444;6.484;2022-09-09T08:24:21;70158.19;;;22.00;74.76
3844;BME280;1937;51.444;6.484;2022-09-09T08:26:50;70034.81;;;21.60;75.29
3844;BME280;1937;51.444;6.484;2022-09-09T08:29:18;69929.22;;;21.26;75.77
3844;BME280;1937;51.444;6.484;2022-09-09T08:31:48;69870.88;;;21.03;76.33
3844;BME280;1937;51.444;6.484;2022-09-09T08:34:18;69890.34;;;20.93;77.68
3844;BME280;1937;51.444;6.484;2022-09-09T08:36:49;69851.66;;;20.94;77.42
3844;BME280;1937;51.444;6.484;2022-09-09T08:39:19;69906.50;;;21.07;76.52
3844;BME280;1937;51.444;6.484;2022-09-09T08:41:58;69875.19;;;21.11;76.20
3844;BME280;1937;51.444;6.484;2022-09-09T08:44:40;69838.25;;;21.02;76.57
3844;BME280;1937;51.444;6.484;2022-09-09T08:47:19;69778.19;;;20.78;77.19
3844;BME280;1937;51.444;6.484;2022-09-09T08:50:02;69817.03;;;20.93;77.05
3844;BME280;1937;51.444;6.484;2022-09-09T08:52:40;69731.25;;;20.65;77.18
3844;BME280;1937;51.444;6.484;2022-09-09T08:55:20;69698.97;;;20.44;79.02
3844;BME280;1937;51.444;6.484;2022-09-09T08:57:53;69795.41;;;20.70;77.95
3844;BME280;1937;51.444;6.484;2022-09-09T09:00:22;69707.81;;;20.58;78.03
3844;BME280;1937;51.444;6.484;2022-09-09T09:03:01;69741.00;;;20.60;77.50
3844;BME280;1937;51.444;6.484;2022-09-09T09:05:37;69744.56;;;20.63;77.78
3844;BME280;1937;51.444;6.484;2022-09-09T09:08:15;69606.84;;;20.15;78.43
3844;BME280;1937;51.444;6.484;2022-09-09T09:10:48;69613.84;;;20.05;78.90
3844;BME280;1937;51.444;6.484;2022-09-09T09:13:20;69489.09;;;19.59;78.79
3844;BME280;1937;51.444;6.484;2022-09-09T09:15:55;69562.34;;;19.92;79.15
3844;BME280;1937;51.444;6.484;2022-09-09T09:18:26;69615.50;;;20.02;79.20
3844;BME280;1937;51.444;6.484;2022-09-09T09:20:58;69606.22;;;20.03;79.08
3844;BME280;1937;51.444;6.484;2022-09-09T09:23:35;69629.81;;;20.25;77.61
3844;BME280;1937;51.444;6.484;2022-09-09T09:26:09;69719.91;;;20.44;78.53
3844;BME280;1937;51.444;6.484;2022-09-09T09:28:37;69735.31;;;20.64;76.81
3844;BME280;1937;51.444;6.484;2022-09-09T09:31:09;69628.94;;;20.56;76.01
3844;BME280;1937;51.444;6.484;2022-09-09T09:33:43;69680.09;;;20.66;76.45
3844;BME280;1937;51.444;6.484;2022-09-09T09:36:15;69863.75;;;21.37;74.23
3844;BME280;1937;51.444;6.484;2022-09-09T09:38:56;69879.69;;;21.75;71.06
3844;BME280;1937;51.444;6.484;2022-09-09T09:41:35;69976.44;;;22.46;68.40
3844;BME280;1937;51.444;6.484;2022-09-09T09:44:06;70015.41;;;22.83;67.07
3844;BME280;1937;51.444;6.484;2022-09-09T09:46:48;69939.25;;;22.72;66.38
3844;BME280;1937;51.444;6.484;2022-09-09T09:49:17;69958.34;;;22.89;65.43
3844;BME280;1937;51.444;6.484;2022-09-09T09:51:46;70106.06;;;23.62;63.96
3844;BME280;1937;51.444;6.484;2022-09-09T09:54:28;70074.16;;;23.60;64.59
3844;BME280;1937;51.444;6.484;2022-09-09T09:56:58;69907.19;;;23.10;63.60
3844;BME280;1937;51.444;6.484;2022-09-09T09:59:36;69860.19;;;22.85;64.95
3844;BME280;1937;51.444;6.484;2022-09-09T10:02:26;69649.28;;;22.27;65.81
3844;BME280;1937;51.444;6.484;2022-09-09T10:05:03;69728.75;;;22.32;66.84
3844;BME280;1937;51.444;6.484;2022-09-09T10:07:31;69670.31;;;22.16;65.71
3844;BME280;1937;51.444;6.484;2022-09-09T10:10:02;69599.19;;;22.02;66.49
3844;BME280;1937;51.444;6.484;2022-09-09T10:12:38;69551.91;;;21.75;67.88
3844;BME280;1937;51.444;6.484;2022-09-09T10:15:24;69403.66;;;21.22;69.01
3844;BME280;1937;51.444;6.484;2022-09-09T10:18:00;69409.44;;;21.07;69.90
3844;BME280;1937;51.444;6.484;2022-09-09T10:20:39;69399.09;;;21.01;69.50
3844;BME280;1937;51.444;6.484;2022-09-09T10:23:21;69323.63;;;20.70;70.84
3844;BME280;1937;51.444;6.484;2022-09-09T10:26:09;69327.53;;;20.75;71.44
3844;BME280;1937;51.444;6.484;2022-09-09T10:29:10;69354.34;;;20.65;72.26
3844;BME280;1937;51.444;6.484;2022-09-09T10:31:49;69300.22;;;20.36;73.12
3844;BME280;1937;51.444;6.484;2022-09-09T10:34:49;69324.31;;;20.48;72.70
3844;BME280;1937;51.444;6.484;2022-09-09T10:37:31;69345.34;;;20.53;72.44
3844;BME280;1937;51.444;6.484;2022-09-09T10:40:08;69380.91;;;20.56;72.42
3844;BME280;1937;51.444;6.484;2022-09-09T10:42:44;69421.50;;;20.89;72.31
3844;BME280;1937;51.444;6.484;2022-09-09T10:45:20;69457.16;;;21.19;70.88
3844;BME280;1937;51.444;6.484;2022-09-09T10:48:03;69489.63;;;21.27;70.36
3844;BME280;1937;51.444;6.484;2022-09-09T10:50:57;69438.56;;;21.10;71.14
3844;BME280;1937;51.444;6.484;2022-09-09T10:53:39;69531.22;;;21.24;70.80
3844;BME280;1937;51.444;6.484;2022-09-09T10:56:16;69489.16;;;21.31;70.08
3844;BME280;1937;51.444;6.484;2022-09-09T10:58:51;69438.63;;;20.99;70.21
3844;BME280;1937;51.444;6.484;2022-09-09T11:01:25;69341.19;;;20.60;71.82
3844;BME280;1937;51.444;6.484;2022-09-09T11:04:00;69317.53;;;20.44;72.98
3844;BME280;1937;51.444;6.484;2022-09-09T11:06:35;69308.66;;;20.37;73.94
3844;BME280;1937;51.444;6.484;2022-09-09T11:09:08;69426.88;;;20.82;72.60
3844;BME280;1937;51.444;6.484;2022-09-09T11:11:49;69543.81;;;21.28;71.00
3844;BME280;1937;51.444;6.484;2022-09-09T11:14:26;69576.28;;;21.47;70.47
3844;BME280;1937;51.444;6.484;2022-09-09T11:16:59;69638.56;;;21.69;69.48
3844;BME280;1937;51.444;6.484;2022-09-09T11:19:33;69551.34;;;21.63;69.47
3844;BME280;1937;51.444;6.484;2022-09-09T11:22:04;69498.56;;;21.23;70.84
3844;BME280;1937;51.444;6.484;2022-09-09T11:24:40;69544.63;;;21.38;70.58
3844;BME280;1937;51.444;6.484;2022-09-09T11:27:15;69552.72;;;21.47;71.02
3844;BME280;1937;51.444;6.484;2022-09-09T11:30:15;69586.63;;;21.64;69.99
3844;BME280;1937;51.444;6.484;2022-09-09T11:33:13;69548.56;;;21.43;70.80
3844;BME280;1937;51.444;6.484;2022-09-09T11:35:58;69588.81;;;21.46;70.99
3844;BME280;1937;51.444;6.484;2022-09-09T11:38:32;69626.53;;;21.65;71.11
3844;BME280;1937;51.444;6.484;2022-09-09T11:41:07;69749.53;;;22.12;69.42
3844;BME280;1937;51.444;6.484;2022-09-09T11:43:41;69831.56;;;22.61;67.37
3844;BME280;1937;51.444;6.484;2022-09-09T11:46:14;69774.38;;;22.51;68.08
3844;BME280;1937;51.444;6.484;2022-09-09T11:48:46;69861.03;;;22.84;67.57
3844;BME280;1937;51.444;6.484;2022-09-09T11:51:30;69711.91;;;22.35;67.08
3844;BME280;1937;51.444;6.484;2022-09-09T11:54:00;69754.38;;;22.31;68.59
3844;BME280;1937;51.444;6.484;2022-09-09T11:56:32;69777.28;;;22.49;67.37
3844;BME280;1937;51.444;6.484;2022-09-09T11:59:04;69843.09;;;22.69;67.48
3844;BME280;1937;51.444;6.484;2022-09-09T12:01:43;69912.47;;;22.99;67.44
3844;BME280;1937;51.444;6.484;2022-09-09T12:04:27;69690.78;;;22.42;67.64
3844;BME280;1937;51.444;6.484;2022-09-09T12:06:57;69640.53;;;22.13;68.03
3844;BME280;1937;51.444;6.484;2022-09-09T12:09:37;69568.28;;;21.91;69.06
3844;BME280;1937;51.444;6.484;2022-09-09T12:12:24;69437.63;;;21.45;70.55
3844;BME280;1937;51.444;6.484;2022-09-09T12:14:57;69456.28;;;21.32;70.93
3844;BME280;1937;51.444;6.484;2022-09-09T12:17:29;69453.34;;;21.18;73.11
3844;BME280;1937;51.444;6.484;2022-09-09T12:20:06;69321.38;;;20.34;78.54
3844;BME280;1937;51.444;6.484;2022-09-09T12:22:40;69389.00;;;20.54;78.69
3844;BME280;1937;51.444;6.484;2022-09-09T12:25:19;69386.66;;;20.30;79.37
3844;BME280;1937;51.444;6.484;2022-09-09T12:28:00;69415.09;;;20.05;84.15
3844;BME280;1937;51.444;6.484;2022-09-09T12:30:35;69409.53;;;19.47;88.66
3844;BME280;1937;51.444;6.484;2022-09-09T12:33:16;69542.44;;;19.27;90.60
3844;BME280;1937;51.444;6.484;2022-09-09T12:35:50;69656.00;;;19.21;91.71
3844;BME280;1937;51.444;6.484;2022-09-09T12:38:23;69890.19;;;19.29;93.30
3844;BME280;1937;51.444;6.484;2022-09-09T12:40:56;70070.63;;;19.58;91.77
3844;BME280;1937;51.444;6.484;2022-09-09T12:43:27;70149.75;;;19.76;88.86
3844;BME280;1937;51.444;6.484;2022-09-09T12:45:58;70260.09;;;20.21;88.77
3844;BME280;1937;51.444;6.484;2022-09-09T12:48:35;70334.78;;;20.64;85.51
3844;BME280;1937;51.444;6.484;2022-09-09T12:51:07;70258.00;;;20.72;84.61
3844;BME280;1937;51.444;6.484;2022-09-09T12:53:47;70285.63;;;20.95;83.64
3844;BME280;1937;51.444;6.484;2022-09-09T12:56:21;70164.53;;;20.95;82.19
3844;BME280;1937;51.444;6.484;2022-09-09T12:58:52;70100.78;;;20.85;81.39
3844;BME280;1937;51.444;6.484;2022-09-09T13:01:23;70099.56;;;20.84;82.17
3844;BME280;1937;51.444;6.484;2022-09-09T13:03:54;70127.41;;;20.99;81.07
3844;BME280;1937;51.444;6.484;2022-09-09T13:06:24;69970.88;;;20.81;80.33
3844;BME280;1937;51.444;6.484;2022-09-09T13:08:55;69924.28;;;20.71;79.38
3844;BME280;1937;51.444;6.484;2022-09-09T13:11:28;69969.31;;;20.78;80.37
3844;BME280;1937;51.444;6.484;2022-09-09T13:14:01;70026.84;;;20.84;79.58
3844;BME280;1937;51.444;6.484;2022-09-09T13:16:32;69937.97;;;20.71;80.81
3844;BME280;1937;51.444;6.484;2022-09-09T13:19:07;69973.69;;;20.97;79.60
3844;BME280;1937;51.444;6.484;2022-09-09T13:21:37;69968.16;;;21.06;78.28
3844;BME280;1937;51.444;6.484;2022-09-09T13:24:19;69935.88;;;21.25;76.87
3844;BME280;1937;51.444;6.484;2022-09-09T13:26:56;69962.88;;;21.41;76.48
3844;BME280;1937;51.444;6.484;2022-09-09T13:29:25;70118.97;;;22.04;74.34
3844;BME280;1937;51.444;6.484;2022-09-09T13:31:55;70051.25;;;21.83;75.56
3844;BME280;1937;51.444;6.484;2022-09-09T13:34:35;70015.94;;;22.11;73.14
3844;BME280;1937;51.444;6.484;2022-09-09T13:37:06;70014.31;;;22.14;73.41
3844;BME280;1937;51.444;6.484;2022-09-09T13:39:53;69955.53;;;21.88;73.12
3844;BME280;1937;51.444;6.484;2022-09-09T13:42:27;69902.44;;;21.77;74.02
3844;BME280;1937;51.444;6.484;2022-09-09T13:44:56;69852.63;;;21.77;72.48
3844;BME280;1937;51.444;6.484;2022-09-09T13:47:31;69867.44;;;21.85;73.16
3844;BME280;1937;51.444;6.484;2022-09-09T13:50:15;69861.72;;;21.89;73.12
3844;BME280;1937;51.444;6.484;2022-09-09T13:52:45;69836.53;;;21.74;73.32